createdAt,value
2023-04-02T00:00:11.057Z,2.30
2023-04-02T00:01:34.748Z,2.03
2023-04-02T00:02:56.510Z,2.03
2023-04-02T00:04:04.096Z,1.73
2023-04-02T00:05:21.151Z,2.05
2023-04-02T00:06:30.081Z,1.63
2023-04-02T00:07:33.820Z,2.30
2023-04-02T00:08:41.133Z,2.00
2023-04-02T00:09:43.516Z,1.80
2023-04-02T00:10:49.287Z,1.60
2023-04-02T00:11:55.744Z,1.98
2023-04-02T00:13:11.171Z,1.55
2023-04-02T00:14:35.889Z,1.60
2023-04-02T00:15:39.663Z,1.63
2023-04-02T00:16:42.018Z,1.73
2023-04-02T00:17:44.172Z,1.60
2023-04-02T00:18:50.870Z,1.70
2023-04-02T00:20:00.814Z,1.55
2023-04-02T00:21:07.774Z,1.75
2023-04-02T00:22:20.136Z,1.50
2023-04-02T00:23:22.594Z,1.77
2023-04-02T00:24:24.954Z,2.00
2023-04-02T00:25:28.773Z,1.70
2023-04-02T00:26:35.029Z,1.70
2023-04-02T00:27:37.169Z,1.63
2023-04-02T00:28:39.535Z,1.63
2023-04-02T00:29:56.295Z,1.70
2023-04-02T00:31:01.617Z,1.58
2023-04-02T00:32:04.701Z,1.80
2023-04-02T00:33:14.463Z,1.83
2023-04-02T00:34:24.009Z,1.77
2023-04-02T00:35:28.751Z,1.50
2023-04-02T00:36:34.278Z,1.67
2023-04-02T00:37:42.321Z,1.80
2023-04-02T00:38:46.720Z,1.65
2023-04-02T00:39:57.266Z,1.52
2023-04-02T00:41:02.883Z,2.10
2023-04-02T00:42:05.633Z,1.63
2023-04-02T00:43:08.179Z,1.65
2023-04-02T00:44:12.391Z,1.52
2023-04-02T00:45:19.352Z,1.65
2023-04-02T00:46:25.404Z,1.50
2023-04-02T00:47:37.750Z,2.00
2023-04-02T00:48:48.889Z,1.98
2023-04-02T00:50:56.730Z,1.83
2023-04-02T00:52:07.488Z,1.77
2023-04-02T00:53:15.836Z,1.60
2023-04-02T00:54:20.622Z,1.70
2023-04-02T00:55:39.499Z,1.75
2023-04-02T00:56:44.753Z,1.50
2023-04-02T00:57:49.138Z,1.92
2023-04-02T00:58:53.444Z,1.52
2023-04-02T01:00:03.992Z,1.70
2023-04-02T01:01:16.924Z,1.63
2023-04-02T01:02:26.612Z,1.60
2023-04-02T01:03:34.800Z,1.90
2023-04-02T01:04:37.555Z,1.60
2023-04-02T01:05:39.681Z,1.92
2023-04-02T01:06:43.977Z,2.15
2023-04-02T01:07:48.776Z,1.60
2023-04-02T01:09:01.026Z,2.10
2023-04-02T01:10:12.016Z,1.70
2023-04-02T01:12:59.198Z,1.52
2023-04-02T01:14:03.885Z,1.40
2023-04-02T01:16:33.144Z,1.77
2023-04-02T01:17:35.268Z,1.80
2023-04-02T01:18:46.469Z,1.92
2023-04-02T01:20:33.088Z,1.80
2023-04-02T01:21:55.843Z,1.65
2023-04-02T01:23:02.698Z,1.73
2023-04-02T01:24:07.191Z,1.85
2023-04-02T01:25:15.518Z,1.80
2023-04-02T01:26:30.499Z,1.50
2023-04-02T01:27:42.507Z,1.83
2023-04-02T01:29:03.089Z,2.10
2023-04-02T01:30:07.498Z,1.73
2023-04-02T01:31:10.130Z,1.50
2023-04-02T01:32:15.718Z,1.73
2023-04-02T01:33:18.878Z,1.90
2023-04-02T01:34:24.497Z,2.00
2023-04-02T01:35:32.003Z,1.80
2023-04-02T01:36:56.589Z,1.55
2023-04-02T01:38:11.856Z,1.75
2023-04-02T01:39:35.506Z,2.00
2023-04-02T01:41:04.202Z,1.77
2023-04-02T01:42:20.948Z,2.28
2023-04-02T01:43:28.901Z,1.85
2023-04-02T01:44:44.262Z,1.80
2023-04-02T01:45:46.509Z,1.77
2023-04-02T01:46:49.712Z,1.52
2023-04-02T01:47:52.072Z,4.13
2023-04-02T01:48:55.814Z,2.00
2023-04-02T01:50:18.874Z,2.00
2023-04-02T01:51:30.493Z,1.55
2023-04-02T01:52:40.731Z,5.55
2023-04-02T01:53:42.879Z,1.73
2023-04-02T01:54:47.344Z,1.60
2023-04-02T01:55:54.920Z,2.60
2023-04-02T01:56:57.566Z,1.80
2023-04-02T01:58:00.772Z,2.10
2023-04-02T01:59:05.879Z,1.65
2023-04-02T02:00:13.671Z,1.70
2023-04-02T02:01:18.909Z,1.80
2023-04-02T02:02:21.968Z,1.73
2023-04-02T02:03:24.262Z,1.83
2023-04-02T02:04:26.448Z,1.58
2023-04-02T02:05:29.027Z,1.80
2023-04-02T02:06:31.440Z,2.47
2023-04-02T02:07:33.583Z,2.30
2023-04-02T02:08:40.341Z,2.47
2023-04-02T02:09:42.772Z,2.40
2023-04-02T02:10:44.869Z,1.90
2023-04-02T02:11:48.223Z,1.63
2023-04-02T02:12:50.834Z,1.35
2023-04-02T02:13:57.546Z,1.42
2023-04-02T02:14:59.697Z,1.73
2023-04-02T02:16:03.587Z,1.73
2023-04-02T02:17:13.492Z,1.73
2023-04-02T02:18:17.295Z,1.63
2023-04-02T02:19:22.020Z,1.60
2023-04-02T02:21:32.428Z,2.08
2023-04-02T02:22:40.654Z,1.73
2023-04-02T02:23:42.811Z,1.67
2023-04-02T02:24:45.440Z,2.00
2023-04-02T02:25:48.062Z,1.60
2023-04-02T02:26:59.208Z,1.45
2023-04-02T02:29:06.994Z,2.00
2023-04-02T02:30:21.209Z,1.88
2023-04-02T02:31:29.915Z,1.58
2023-04-02T02:32:33.415Z,1.83
2023-04-02T02:33:43.788Z,1.90
2023-04-02T02:34:52.533Z,2.17
2023-04-02T02:36:02.374Z,2.00
2023-04-02T02:37:18.207Z,1.52
2023-04-02T02:38:27.170Z,1.70
2023-04-02T02:39:39.495Z,1.83
2023-04-02T02:40:46.167Z,1.80
2023-04-02T02:42:01.909Z,1.98
2023-04-02T02:43:05.527Z,2.00
2023-04-02T02:44:10.495Z,1.88
2023-04-02T02:45:18.749Z,1.80
2023-04-02T02:46:22.556Z,1.90
2023-04-02T02:47:38.339Z,1.90
2023-04-02T02:48:41.998Z,1.63
2023-04-02T02:49:47.481Z,2.00
2023-04-02T02:50:51.100Z,2.20
2023-04-02T02:51:59.153Z,1.88
2023-04-02T02:53:05.736Z,2.10
2023-04-02T02:54:07.934Z,2.70
2023-04-02T02:55:13.386Z,2.08
2023-04-02T02:56:15.929Z,1.98
2023-04-02T02:57:24.275Z,1.83
2023-04-02T02:58:31.445Z,1.90
2023-04-02T02:59:34.041Z,1.95
2023-04-02T03:00:37.682Z,2.08
2023-04-02T03:01:39.819Z,2.00
2023-04-02T03:02:42.939Z,2.13
2023-04-02T03:03:47.572Z,1.95
2023-04-02T03:04:53.143Z,1.90
2023-04-02T03:05:57.976Z,2.50
2023-04-02T03:08:03.615Z,1.88
2023-04-02T03:09:39.529Z,2.22
2023-04-02T03:10:46.248Z,2.20
2023-04-02T03:12:03.857Z,2.45
2023-04-02T03:13:21.963Z,1.88
2023-04-02T03:14:33.066Z,2.20
2023-04-02T03:16:47.492Z,1.90
2023-04-02T03:17:52.520Z,2.10
2023-04-02T03:19:17.233Z,2.28
2023-04-02T03:20:24.666Z,2.00
2023-04-02T03:21:39.086Z,2.17
2023-04-02T03:22:47.369Z,2.50
2023-04-02T03:23:55.408Z,2.60
2023-04-02T03:25:16.335Z,2.03
2023-04-02T03:26:40.552Z,2.58
2023-04-02T03:27:45.874Z,2.30
2023-04-02T03:28:54.793Z,1.88
2023-04-02T03:30:24.381Z,2.00
2023-04-02T03:31:32.864Z,2.08
2023-04-02T03:32:38.152Z,1.98
2023-04-02T03:33:46.397Z,2.05
2023-04-02T03:35:00.376Z,2.85
2023-04-02T03:36:38.330Z,2.35
2023-04-02T03:37:48.434Z,2.25
2023-04-02T03:38:59.924Z,2.20
2023-04-02T03:40:08.216Z,2.22
2023-04-02T03:41:15.623Z,2.58
2023-04-02T03:42:26.280Z,2.33
2023-04-02T03:43:33.432Z,2.20
2023-04-02T03:44:39.561Z,2.50
2023-04-02T03:45:46.080Z,2.20
2023-04-02T03:46:57.364Z,1.98
2023-04-02T03:48:05.363Z,2.63
2023-04-02T03:49:19.668Z,2.10
2023-04-02T03:50:31.809Z,2.53
2023-04-02T03:51:38.981Z,2.50
2023-04-02T03:52:41.135Z,2.22
2023-04-02T03:53:44.096Z,2.17
2023-04-02T03:54:53.718Z,2.42
2023-04-02T03:55:57.419Z,2.80
2023-04-02T03:56:59.801Z,2.65
2023-04-02T03:58:07.646Z,2.83
2023-04-02T03:59:20.833Z,2.58
2023-04-02T04:00:29.714Z,2.30
2023-04-02T04:01:39.773Z,2.22
2023-04-02T04:02:48.553Z,2.55
2023-04-02T04:03:53.744Z,2.67
2023-04-02T04:04:56.582Z,2.50
2023-04-02T04:06:18.011Z,2.33
2023-04-02T04:07:30.328Z,2.55
2023-04-02T04:08:42.540Z,2.85
2023-04-02T04:09:46.044Z,2.70
2023-04-02T04:10:53.217Z,2.60
2023-04-02T04:12:07.693Z,2.50
2023-04-02T04:13:14.146Z,2.60
2023-04-02T04:14:20.957Z,2.70
2023-04-02T04:15:27.535Z,2.45
2023-04-02T04:16:46.327Z,2.30
2023-04-02T04:18:02.346Z,2.50
2023-04-02T04:19:34.806Z,2.65
2023-04-02T04:20:59.101Z,2.70
2023-04-02T04:22:30.566Z,2.58
2023-04-02T04:23:37.685Z,2.38
2023-04-02T04:24:40.037Z,2.40
2023-04-02T04:25:42.138Z,2.67
2023-04-02T04:26:49.689Z,2.60
2023-04-02T04:28:05.695Z,2.22
2023-04-02T04:29:27.633Z,2.70
2023-04-02T04:30:34.839Z,2.53
2023-04-02T04:31:47.237Z,2.50
2023-04-02T04:32:58.266Z,3.05
2023-04-02T04:34:07.162Z,2.70
2023-04-02T04:35:21.758Z,2.83
2023-04-02T04:36:30.184Z,2.78
2023-04-02T04:37:36.134Z,2.60
2023-04-02T04:38:39.736Z,2.17
2023-04-02T04:39:45.969Z,2.90
2023-04-02T04:40:54.176Z,2.65
2023-04-02T04:41:59.539Z,2.22
2023-04-02T04:43:05.827Z,2.70
2023-04-02T04:44:23.960Z,2.55
2023-04-02T04:45:42.709Z,2.92
2023-04-02T04:46:57.410Z,2.67
2023-04-02T04:48:07.046Z,2.65
2023-04-02T04:49:32.705Z,2.53
2023-04-02T04:50:39.100Z,3.00
2023-04-02T04:51:52.173Z,2.72
2023-04-02T04:52:54.269Z,2.83
2023-04-02T04:53:56.471Z,2.63
2023-04-02T04:54:58.633Z,2.63
2023-04-02T04:56:16.536Z,2.60
2023-04-02T04:57:30.030Z,2.55
2023-04-02T04:58:35.993Z,2.65
2023-04-02T04:59:44.737Z,2.53
2023-04-02T05:00:58.621Z,2.85
2023-04-02T05:02:20.095Z,2.60
2023-04-02T05:03:37.064Z,2.50
2023-04-02T05:04:41.592Z,2.70
2023-04-02T05:05:44.496Z,2.67
2023-04-02T05:07:01.054Z,2.60
2023-04-02T05:08:27.158Z,2.80
2023-04-02T05:09:34.944Z,2.75
2023-04-02T05:11:05.691Z,2.65
2023-04-02T05:12:21.205Z,2.72
2023-04-02T05:13:30.459Z,2.50
2023-04-02T05:14:38.406Z,2.72
2023-04-02T05:15:46.641Z,2.95
2023-04-02T05:16:53.411Z,2.42
2023-04-02T05:18:17.577Z,3.35
2023-04-02T05:19:22.561Z,2.22
2023-04-02T05:20:29.149Z,2.70
2023-04-02T05:21:52.296Z,2.40
2023-04-02T05:23:02.767Z,2.42
2023-04-02T05:24:13.823Z,2.35
2023-04-02T05:25:27.565Z,2.50
2023-04-02T05:26:48.043Z,2.42
2023-04-02T05:27:54.421Z,2.08
2023-04-02T05:29:14.821Z,2.00
2023-04-02T05:30:41.903Z,2.42
2023-04-02T05:32:02.218Z,2.58
2023-04-02T05:33:08.154Z,2.25
2023-04-02T05:34:11.718Z,2.00
2023-04-02T05:35:16.740Z,2.55
2023-04-02T05:36:37.089Z,2.42
2023-04-02T05:37:39.332Z,2.38
2023-04-02T05:38:46.426Z,2.53
2023-04-02T05:39:55.033Z,2.67
2023-04-02T05:41:31.587Z,2.50
2023-04-02T05:42:37.195Z,2.22
2023-04-02T05:43:40.875Z,2.15
2023-04-02T05:44:57.068Z,2.65
2023-04-02T05:46:02.915Z,2.63
2023-04-02T05:47:19.199Z,2.30
2023-04-02T05:48:27.550Z,2.80
2023-04-02T05:49:44.411Z,2.42
2023-04-02T05:50:52.285Z,2.35
2023-04-02T05:51:59.044Z,2.22
2023-04-02T05:53:14.000Z,2.10
2023-04-02T05:54:24.288Z,2.40
2023-04-02T05:55:34.748Z,2.70
2023-04-02T05:56:44.099Z,3.15
2023-04-02T05:58:07.419Z,2.22
2023-04-02T05:59:24.958Z,2.25
2023-04-02T06:00:29.765Z,2.22
2023-04-02T06:01:47.354Z,2.63
2023-04-02T06:03:00.103Z,2.67
2023-04-02T06:04:11.319Z,2.60
2023-04-02T06:06:29.568Z,2.78
2023-04-02T06:07:36.669Z,2.42
2023-04-02T06:08:42.341Z,2.60
2023-04-02T06:09:48.578Z,2.47
2023-04-02T06:11:00.432Z,2.40
2023-04-02T06:12:11.559Z,2.22
2023-04-02T06:14:18.193Z,2.17
2023-04-02T06:15:22.713Z,2.25
2023-04-02T06:16:28.923Z,2.50
2023-04-02T06:17:34.660Z,2.47
2023-04-02T06:18:37.113Z,2.25
2023-04-02T06:19:39.618Z,2.55
2023-04-02T06:20:41.851Z,2.47
2023-04-02T06:21:45.878Z,2.15
2023-04-02T06:22:59.086Z,2.13
2023-04-02T06:24:04.729Z,2.42
2023-04-02T06:25:18.061Z,2.40
2023-04-02T06:26:34.043Z,2.33
2023-04-02T06:27:37.785Z,3.17
2023-04-02T06:28:52.898Z,2.42
2023-04-02T06:30:00.148Z,2.33
2023-04-02T06:31:08.137Z,2.28
2023-04-02T06:32:12.435Z,2.50
2023-04-02T06:33:15.689Z,2.58
2023-04-02T06:34:20.639Z,2.45
2023-04-02T06:35:23.365Z,2.25
2023-04-02T06:36:27.869Z,2.35
2023-04-02T06:37:38.477Z,2.42
2023-04-02T06:38:41.134Z,2.33
2023-04-02T06:39:43.233Z,3.03
2023-04-02T06:40:58.934Z,2.50
2023-04-02T06:42:04.510Z,2.67
2023-04-02T06:43:16.682Z,2.33
2023-04-02T06:44:21.600Z,2.38
2023-04-02T06:45:34.607Z,2.53
2023-04-02T06:46:43.955Z,2.55
2023-04-02T06:47:47.329Z,2.47
2023-04-02T06:48:51.495Z,2.45
2023-04-02T06:50:11.960Z,2.22
2023-04-02T06:51:16.846Z,2.33
2023-04-02T06:52:26.207Z,2.60
2023-04-02T06:53:33.530Z,2.60
2023-04-02T06:54:35.789Z,2.40
2023-04-02T06:55:56.515Z,2.30
2023-04-02T06:56:58.770Z,2.15
2023-04-02T06:58:00.934Z,2.08
2023-04-02T06:59:04.835Z,2.50
2023-04-02T07:00:37.824Z,2.55
2023-04-02T07:02:26.509Z,2.53
2023-04-02T07:03:32.773Z,2.38
2023-04-02T07:04:35.014Z,2.35
2023-04-02T07:05:37.388Z,2.40
2023-04-02T07:06:39.855Z,2.20
2023-04-02T07:07:42.032Z,2.33
2023-04-02T07:08:44.423Z,3.03
2023-04-02T07:09:46.682Z,2.63
2023-04-02T07:10:48.990Z,2.83
2023-04-02T07:11:51.372Z,2.20
2023-04-02T07:12:53.478Z,2.53
2023-04-02T07:13:55.652Z,2.55
2023-04-02T07:14:57.761Z,2.53
2023-04-02T07:15:59.996Z,2.33
2023-04-02T07:17:02.313Z,2.72
2023-04-02T07:18:04.579Z,3.05
2023-04-02T07:19:07.089Z,2.65
2023-04-02T07:20:26.183Z,2.80
2023-04-02T07:21:28.476Z,2.40
2023-04-02T07:22:30.937Z,2.33
2023-04-02T07:23:33.065Z,2.45
2023-04-02T07:24:35.158Z,2.58
2023-04-02T07:25:37.417Z,2.35
2023-04-02T07:26:39.722Z,2.28
2023-04-02T07:27:41.887Z,2.28
2023-04-02T07:28:44.231Z,2.28
2023-04-02T07:29:46.455Z,2.17
2023-04-02T07:30:49.172Z,2.60
2023-04-02T07:31:52.994Z,2.63
2023-04-02T07:32:55.216Z,2.45
2023-04-02T07:33:59.900Z,1.92
2023-04-02T07:36:04.694Z,2.38
2023-04-02T07:37:07.606Z,2.78
2023-04-02T07:38:09.769Z,2.10
2023-04-02T07:39:12.373Z,2.60
2023-04-02T07:40:20.687Z,2.20
2023-04-02T07:41:23.395Z,2.70
2023-04-02T07:42:25.484Z,2.13
2023-04-02T07:43:27.617Z,2.58
2023-04-02T07:44:29.761Z,2.38
2023-04-02T07:45:32.232Z,2.50
2023-04-02T07:46:34.388Z,2.38
2023-04-02T07:47:36.570Z,2.75
2023-04-02T07:48:40.458Z,2.65
2023-04-02T07:49:42.676Z,2.22
2023-04-02T07:50:44.787Z,3.33
2023-04-02T07:51:47.583Z,2.70
2023-04-02T07:52:50.008Z,2.22
2023-04-02T07:53:55.952Z,2.65
2023-04-02T07:54:58.341Z,2.50
2023-04-02T07:56:02.913Z,2.78
2023-04-02T07:58:07.019Z,2.85
2023-04-02T07:59:09.386Z,2.55
2023-04-02T08:00:12.220Z,2.63
2023-04-02T08:01:20.053Z,3.10
2023-04-02T08:02:22.762Z,2.75
2023-04-02T08:03:25.480Z,2.60
2023-04-02T08:04:27.642Z,2.97
2023-04-02T08:05:29.702Z,3.25
2023-04-02T08:06:31.849Z,3.08
2023-04-02T08:07:33.992Z,3.33
2023-04-02T08:08:36.418Z,3.08
2023-04-02T08:09:38.483Z,3.13
2023-04-02T08:10:40.588Z,3.03
2023-04-02T08:11:43.137Z,3.20
2023-04-02T08:12:45.518Z,2.90
2023-04-02T08:13:48.008Z,3.13
2023-04-02T08:14:50.196Z,3.08
2023-04-02T08:15:52.358Z,3.28
2023-04-02T08:16:56.198Z,3.35
2023-04-02T08:17:58.781Z,3.17
2023-04-02T08:19:01.723Z,2.80
2023-04-02T08:20:06.658Z,3.22
2023-04-02T08:21:10.069Z,2.88
2023-04-02T08:22:12.234Z,3.10
2023-04-02T08:23:17.202Z,2.72
2023-04-02T08:24:19.634Z,3.00
2023-04-02T08:25:21.960Z,2.97
2023-04-02T08:26:24.090Z,2.92
2023-04-02T08:27:26.715Z,3.10
2023-04-02T08:28:28.852Z,3.20
2023-04-02T08:29:32.437Z,3.58
2023-04-02T08:30:35.136Z,3.30
2023-04-02T08:31:37.367Z,3.42
2023-04-02T08:32:41.191Z,3.53
2023-04-02T08:33:43.609Z,3.10
2023-04-02T08:34:45.983Z,3.47
2023-04-02T08:35:49.571Z,3.65
2023-04-02T08:36:55.560Z,3.45
2023-04-02T08:37:57.853Z,3.00
2023-04-02T08:39:01.134Z,3.22
2023-04-02T08:40:04.152Z,3.50
2023-04-02T08:41:06.393Z,3.20
2023-04-02T08:42:41.098Z,3.47
2023-04-02T08:44:09.572Z,3.30
2023-04-02T08:45:36.896Z,3.35
2023-04-02T08:46:52.218Z,3.42
2023-04-02T08:47:56.685Z,3.13
2023-04-02T08:50:04.190Z,3.45
2023-04-02T08:52:22.032Z,2.95
2023-04-02T08:53:29.812Z,3.25
2023-04-02T08:54:38.022Z,3.22
2023-04-02T08:55:52.665Z,3.28
2023-04-02T08:57:07.842Z,3.28
2023-04-02T08:58:22.842Z,3.00
2023-04-02T08:59:35.176Z,3.00
2023-04-02T09:00:40.864Z,2.83
2023-04-02T09:01:54.372Z,3.22
2023-04-02T09:03:01.145Z,3.53
2023-04-02T09:04:07.320Z,3.33
2023-04-02T09:05:18.664Z,2.90
2023-04-02T09:06:21.503Z,2.92
2023-04-02T09:07:23.922Z,2.72
2023-04-02T09:08:27.580Z,2.97
2023-04-02T09:09:36.072Z,2.95
2023-04-02T09:10:43.386Z,3.15
2023-04-02T09:11:54.580Z,2.67
2023-04-02T09:12:58.621Z,3.00
2023-04-02T09:14:03.930Z,2.92
2023-04-02T09:15:22.718Z,3.05
2023-04-02T09:16:37.061Z,2.72
2023-04-02T09:17:50.692Z,2.70
2023-04-02T09:18:55.650Z,2.60
2023-04-02T09:20:02.720Z,3.40
2023-04-02T09:21:32.697Z,2.85
2023-04-02T09:23:37.232Z,3.05
2023-04-02T09:24:39.383Z,3.03
2023-04-02T09:25:51.205Z,2.80
2023-04-02T09:27:03.838Z,3.20
2023-04-02T09:28:06.464Z,3.42
2023-04-02T09:29:08.523Z,3.13
2023-04-02T09:30:29.802Z,3.15
2023-04-02T09:31:37.920Z,3.08
2023-04-02T09:32:48.177Z,3.20
2023-04-02T09:33:53.195Z,3.10
2023-04-02T09:35:14.940Z,3.50
2023-04-02T09:36:37.239Z,3.55
2023-04-02T09:37:40.665Z,3.15
2023-04-02T09:38:57.477Z,3.03
2023-04-02T09:40:25.648Z,3.38
2023-04-02T09:41:30.017Z,3.00
2023-04-02T09:42:35.079Z,2.80
2023-04-02T09:43:38.908Z,3.60
2023-04-02T09:44:41.004Z,3.88
2023-04-02T09:45:44.798Z,3.05
2023-04-02T09:46:55.490Z,3.58
2023-04-02T09:47:57.933Z,3.50
2023-04-02T09:49:01.471Z,3.40
2023-04-02T09:50:21.992Z,3.78
2023-04-02T09:51:34.328Z,3.72
2023-04-02T09:52:36.694Z,3.85
2023-04-02T09:53:45.953Z,3.88
2023-04-02T09:55:28.895Z,3.60
2023-04-02T09:56:36.798Z,3.22
2023-04-02T09:57:39.010Z,3.55
2023-04-02T09:58:42.344Z,3.38
2023-04-02T09:59:44.490Z,3.60
2023-04-02T10:00:53.579Z,3.70
2023-04-02T10:01:56.009Z,3.38
2023-04-02T10:03:05.339Z,3.50
2023-04-02T10:04:44.658Z,3.55
2023-04-02T10:05:47.637Z,3.63
2023-04-02T10:06:50.629Z,3.70
2023-04-02T10:07:54.968Z,3.70
2023-04-02T10:08:57.391Z,3.88
2023-04-02T10:10:01.815Z,3.35
2023-04-02T10:11:08.328Z,3.67
2023-04-02T10:12:13.533Z,4.20
2023-04-02T10:13:29.079Z,4.07
2023-04-02T10:14:40.325Z,3.33
2023-04-02T10:16:00.026Z,3.55
2023-04-02T10:17:14.972Z,3.60
2023-04-02T10:18:23.318Z,3.65
2023-04-02T10:19:32.461Z,4.20
2023-04-02T10:20:41.814Z,3.85
2023-04-02T10:21:52.509Z,3.63
2023-04-02T10:22:54.773Z,3.42
2023-04-02T10:23:59.358Z,3.60
2023-04-02T10:26:20.388Z,3.75
2023-04-02T10:27:44.773Z,4.03
2023-04-02T10:29:00.109Z,3.78
2023-04-02T10:30:20.766Z,3.80
2023-04-02T10:31:28.114Z,3.42
2023-04-02T10:32:52.283Z,3.88
2023-04-02T10:34:02.638Z,3.13
2023-04-02T10:35:16.504Z,3.20
2023-04-02T10:36:33.527Z,3.75
2023-04-02T10:37:35.916Z,4.20
2023-04-02T10:38:45.477Z,4.10
2023-04-02T10:40:11.972Z,3.70
2023-04-02T10:41:23.619Z,4.85
2023-04-02T10:42:39.083Z,4.03
2023-04-02T10:43:50.141Z,4.07
2023-04-02T10:44:56.496Z,4.03
2023-04-02T10:46:01.357Z,4.15
2023-04-02T10:47:06.933Z,4.05
2023-04-02T10:48:16.023Z,3.72
2023-04-02T10:49:48.827Z,3.67
2023-04-02T10:51:16.820Z,4.10
2023-04-02T10:52:27.189Z,4.07
2023-04-02T10:53:42.608Z,3.80
2023-04-02T10:54:56.187Z,4.78
2023-04-02T10:56:03.406Z,3.80
2023-04-02T10:57:21.959Z,4.13
2023-04-02T10:58:26.536Z,4.30
2023-04-02T11:00:35.366Z,3.53
2023-04-02T11:01:38.338Z,3.33
2023-04-02T11:03:00.742Z,4.05
2023-04-02T11:04:08.896Z,5.20
2023-04-02T11:05:20.950Z,4.20
2023-04-02T11:06:28.496Z,3.47
2023-04-02T11:07:43.660Z,3.92
2023-04-02T11:08:50.830Z,4.10
2023-04-02T11:09:56.432Z,3.78
2023-04-02T11:11:09.722Z,3.95
2023-04-02T11:12:22.457Z,3.45
2023-04-02T11:13:29.078Z,2.90
2023-04-02T11:14:31.950Z,3.35
2023-04-02T11:15:35.823Z,3.13
2023-04-02T11:16:42.435Z,3.85
2023-04-02T11:17:46.870Z,3.50
2023-04-02T11:19:08.749Z,3.53
2023-04-02T11:20:45.875Z,3.60
2023-04-02T11:21:59.871Z,3.35
2023-04-02T11:23:12.955Z,3.80
2023-04-02T11:24:23.876Z,3.30
2023-04-02T11:26:31.635Z,3.50
2023-04-02T11:27:34.044Z,3.15
2023-04-02T11:28:36.240Z,2.50
2023-04-02T11:29:39.007Z,3.60
2023-04-02T11:30:42.659Z,2.40
2023-04-02T11:31:46.101Z,2.50
2023-04-02T11:32:51.875Z,2.70
2023-04-02T11:33:54.345Z,2.72
2023-04-02T11:35:06.513Z,2.63
2023-04-02T11:36:51.507Z,2.50
2023-04-02T11:38:22.745Z,2.75
2023-04-02T11:39:55.188Z,2.40
2023-04-02T11:40:58.783Z,2.40
2023-04-02T11:42:03.960Z,2.42
2023-04-02T11:43:34.234Z,3.13
2023-04-02T11:44:36.787Z,2.50
2023-04-02T11:45:52.844Z,2.40
2023-04-02T11:47:15.104Z,2.47
2023-04-02T11:48:17.530Z,2.20
2023-04-02T11:49:37.784Z,2.40
2023-04-02T11:50:42.150Z,2.10
2023-04-02T11:51:44.295Z,2.50
2023-04-02T11:52:46.399Z,2.00
2023-04-02T11:53:53.934Z,2.00
2023-04-02T11:55:27.501Z,1.85
2023-04-02T11:56:35.046Z,1.90
2023-04-02T11:58:00.556Z,1.83
2023-04-02T11:59:20.666Z,2.10
2023-04-02T12:00:51.015Z,2.22
2023-04-02T12:02:27.478Z,2.67
2023-04-02T12:03:47.677Z,2.47
2023-04-02T12:05:04.363Z,2.60
2023-04-02T12:06:39.949Z,2.42
2023-04-02T12:07:55.914Z,2.42
2023-04-02T12:09:15.141Z,2.20
2023-04-02T12:10:25.614Z,2.25
2023-04-02T12:11:47.345Z,2.17
2023-04-02T12:12:50.687Z,2.00
2023-04-02T12:13:53.927Z,7.82
2023-04-02T12:14:57.462Z,2.42
2023-04-02T12:15:59.674Z,2.40
2023-04-02T12:17:08.472Z,2.08
2023-04-02T12:18:13.789Z,2.60
2023-04-02T12:19:16.875Z,2.15
2023-04-02T12:20:23.535Z,2.17
2023-04-02T12:21:28.790Z,1.90
2023-04-02T12:22:32.949Z,2.03
2023-04-02T12:23:36.975Z,2.03
2023-04-02T12:24:40.313Z,1.95
2023-04-02T12:25:46.578Z,2.03
2023-04-02T12:26:49.118Z,2.10
2023-04-02T12:28:18.263Z,2.00
2023-04-02T12:29:29.102Z,2.15
2023-04-02T12:31:33.835Z,1.95
2023-04-02T12:32:36.566Z,2.10
2023-04-02T12:33:39.974Z,2.10
2023-04-02T12:34:45.716Z,2.03
2023-04-02T12:35:50.753Z,2.10
2023-04-02T12:37:04.660Z,2.20
2023-04-02T12:38:20.034Z,2.08
2023-04-02T12:39:23.927Z,2.00
2023-04-02T12:40:28.054Z,2.75
2023-04-02T12:41:33.375Z,2.53
2023-04-02T12:42:37.395Z,3.63
2023-04-02T12:43:40.220Z,3.10
2023-04-02T12:44:49.271Z,2.90
2023-04-02T12:45:53.651Z,2.97
2023-04-02T12:48:01.447Z,2.75
2023-04-02T12:49:16.195Z,2.80
2023-04-02T12:50:18.781Z,3.38
2023-04-02T12:51:21.332Z,2.80
2023-04-02T12:52:28.728Z,5.20
2023-04-02T12:53:40.445Z,2.35
2023-04-02T12:54:54.176Z,2.30
2023-04-02T12:55:56.877Z,2.38
2023-04-02T12:57:27.702Z,2.50
2023-04-02T12:58:54.235Z,2.60
2023-04-02T12:59:57.882Z,2.40
2023-04-02T13:01:23.980Z,2.30
2023-04-02T13:02:29.235Z,2.42
2023-04-02T13:03:31.522Z,3.05
2023-04-02T13:04:47.065Z,2.67
2023-04-02T13:05:57.024Z,2.70
2023-04-02T13:06:59.384Z,2.40
2023-04-02T13:08:01.978Z,2.60
2023-04-02T13:09:06.753Z,2.50
2023-04-02T13:10:26.222Z,2.42
2023-04-02T13:11:54.895Z,2.60
2023-04-02T13:12:59.425Z,2.38
2023-04-02T13:14:03.432Z,2.42
2023-04-02T13:15:08.032Z,2.60
2023-04-02T13:16:10.482Z,2.38
2023-04-02T13:17:54.502Z,2.60
2023-04-02T13:19:28.765Z,2.60
2023-04-02T13:20:40.072Z,2.47
2023-04-02T13:21:42.352Z,2.80
2023-04-02T13:22:44.724Z,2.72
2023-04-02T13:23:47.429Z,2.85
2023-04-02T13:24:49.546Z,2.58
2023-04-02T13:25:51.820Z,2.90
2023-04-02T13:26:56.951Z,2.50
2023-04-02T13:27:59.223Z,3.28
2023-04-02T13:29:35.615Z,2.60
2023-04-02T13:30:38.069Z,2.40
2023-04-02T13:31:40.457Z,2.58
2023-04-02T13:32:43.088Z,2.50
2023-04-02T13:33:46.564Z,2.90
2023-04-02T13:34:48.703Z,2.50
2023-04-02T13:35:51.096Z,2.40
2023-04-02T13:36:53.832Z,2.58
2023-04-02T13:37:56.514Z,2.28
2023-04-02T13:38:58.744Z,2.42
2023-04-02T13:40:01.004Z,2.40
2023-04-02T13:41:03.317Z,2.25
2023-04-02T13:42:08.815Z,1.92
2023-04-02T13:43:17.768Z,2.13
2023-04-02T13:44:30.997Z,1.92
2023-04-02T13:45:36.912Z,1.60
2023-04-02T13:46:39.394Z,2.00
2023-04-02T13:47:41.658Z,1.42
2023-04-02T13:48:43.762Z,1.80
2023-04-02T13:49:48.541Z,1.77
2023-04-02T13:50:51.324Z,1.80
2023-04-02T13:51:59.072Z,2.00
2023-04-02T13:53:10.166Z,2.00
2023-04-02T13:54:49.336Z,2.00
2023-04-02T13:55:52.758Z,1.90
2023-04-02T13:56:57.411Z,2.03
2023-04-02T13:58:00.367Z,1.90
2023-04-02T13:59:02.889Z,1.85
2023-04-02T14:00:06.384Z,1.70
2023-04-02T14:01:09.392Z,1.63
2023-04-02T14:02:16.154Z,1.83
2023-04-02T14:03:22.419Z,1.52
2023-04-02T14:04:28.222Z,1.50
2023-04-02T14:05:58.260Z,1.73
2023-04-02T14:07:07.243Z,1.60
2023-04-02T14:08:23.460Z,1.60
2023-04-02T14:09:31.483Z,1.67
2023-04-02T14:10:53.171Z,1.67
2023-04-02T14:12:04.809Z,1.80
2023-04-02T14:13:34.838Z,1.80
2023-04-02T14:14:49.290Z,1.67
2023-04-02T14:16:23.796Z,1.60
2023-04-02T14:17:58.272Z,1.70
2023-04-02T14:19:06.337Z,1.60
2023-04-02T14:20:14.334Z,1.92
2023-04-02T14:21:18.656Z,1.63
2023-04-02T14:22:50.131Z,2.10
2023-04-02T14:23:59.357Z,2.03
2023-04-02T14:25:11.699Z,1.80
2023-04-02T14:26:30.328Z,1.70
2023-04-02T14:27:58.302Z,1.92
2023-04-02T14:29:12.864Z,1.90
2023-04-02T14:30:27.289Z,2.10
2023-04-02T14:31:51.738Z,2.00
2023-04-02T14:32:59.340Z,1.70
2023-04-02T14:34:29.935Z,1.73
2023-04-02T14:35:42.027Z,2.33
2023-04-02T14:37:08.668Z,2.60
2023-04-02T14:38:40.584Z,2.83
2023-04-02T14:39:49.986Z,2.70
2023-04-02T14:41:13.791Z,3.00
2023-04-02T14:42:16.975Z,3.20
2023-04-02T14:43:28.981Z,2.50
2023-04-02T14:44:37.187Z,3.28
2023-04-02T14:46:03.079Z,3.42
2023-04-02T14:47:33.405Z,3.90
2023-04-02T14:48:45.305Z,2.58
2023-04-02T14:49:51.172Z,2.67
2023-04-02T14:50:58.362Z,2.65
2023-04-02T14:52:04.673Z,2.63
2023-04-02T14:53:22.044Z,2.60
2023-04-02T14:54:35.019Z,2.28
2023-04-02T14:55:44.908Z,2.50
2023-04-02T14:57:28.163Z,2.40
2023-04-02T14:58:37.312Z,2.60
2023-04-02T15:00:03.262Z,2.30
2023-04-02T15:01:28.320Z,2.45
2023-04-02T15:02:33.813Z,2.88
2023-04-02T15:03:43.980Z,2.85
2023-04-02T15:04:56.080Z,2.63
2023-04-02T15:06:02.218Z,2.42
2023-04-02T15:07:16.763Z,2.80
2023-04-02T15:08:37.488Z,2.80
2023-04-02T15:09:47.201Z,2.72
2023-04-02T15:11:02.868Z,2.92
2023-04-02T15:12:27.784Z,3.17
2023-04-02T15:14:00.225Z,3.75
2023-04-02T15:15:14.385Z,3.38
2023-04-02T15:16:26.798Z,4.07
2023-04-02T15:17:29.330Z,3.85
2023-04-02T15:18:32.189Z,3.20
2023-04-02T15:19:34.737Z,3.58
2023-04-02T15:20:46.867Z,4.10
2023-04-02T15:22:08.839Z,3.30
2023-04-02T15:23:29.153Z,3.83
2023-04-02T15:24:40.597Z,3.42
2023-04-02T15:25:52.212Z,3.17
2023-04-02T15:27:24.325Z,2.83
2023-04-02T15:28:52.825Z,2.97
2023-04-02T15:30:31.780Z,2.97
2023-04-02T15:31:34.507Z,3.20
2023-04-02T15:32:39.136Z,3.92
2023-04-02T15:35:04.955Z,3.30
2023-04-02T15:36:35.286Z,4.07
2023-04-02T15:37:56.465Z,4.03
2023-04-02T15:38:58.828Z,3.45
2023-04-02T15:40:16.547Z,3.50
2023-04-02T15:41:32.824Z,4.15
2023-04-02T15:42:39.757Z,3.42
2023-04-02T15:43:47.212Z,3.45
2023-04-02T15:45:40.645Z,3.92
2023-04-02T15:46:56.745Z,4.07
2023-04-02T15:48:50.304Z,3.45
2023-04-02T15:50:11.471Z,3.65
2023-04-02T15:51:36.597Z,3.78
2023-04-02T15:53:01.672Z,3.88